Saint Louis, Texas
Current Conditions -  °F | °C
As of 10:53 PM on Friday 24 Oct 2014 (Local Time) from KTYR Reporting Station
Clear Clear  
Wind Chill: 18°   Ceiling: Unl
Heat Index: 18°   Visibility: 10mi
Dew Point: 14°   Wind: 5mph
Humidity: 80%   Direction: 160°SSE
Pressure: 30.13"   Gusts: NA
Location:  32.3248°N, 95.3025°W
Report Text: KTYR 250353Z AUTO 16004KT 10SM CLR 18/14 A3013 RMK AO2 SLP198 T01780144
Loading
Personal Weather Stations






























Interactive Weather Map
Tropical Storm Tracking
New forecast layout! Learn more

10-Day Weather Forecast

Advertisements
Track Severe Weather on mobile